Dexter, MI (48130)

9:07 AM EDT on September 04, 2015 (GMT -0400)
Huron Farms | | Change Station
CLOSE
Current Station
Personal Weather Station
Location: Dexter, MI
Elevation: 896 ft
Nearby Weather Stations

Elev 896 ft 42.33 °N, 83.86 °W | Updated 0 second ago

Overcast
Overcast
68.4 °F
Feels Like 68.4 °F
N
0.7
Wind Variable Wind from SE
Gusts 1.2 mph

Today
High -- | Low -- °F
--% Chance of Precip.
Yesterday
High -- | Low -- °F
Precip. -- in
7:03 AM 8:04 PM
Waning Gibbous, 59% visible
Pressure 30.00 in
Visibility 10.0 miles
Clouds Overcast 1200 ft
Dew Point 67 °F
Humidity 95%
Rainfall 0.00 in
Snow Depth Not available.
UV 0 out of 12
Pollen 8.60 out of 12
Air Quality Not available.
Flu Activity Not available.
METAR KARB 041253Z 18004KT 10SM OVC012 19/19 A3001 RMK AO2 SLP158 T01940189
Pressure 30.00 in
Visibility 10.0 miles
Clouds Overcast 1200 ft
Dew Point 67 °F
Humidity 95%
Rainfall 0.00 in
Snow Depth Not available.
UV 0 out of 12
Pollen 8.60 out of 12
Air Quality Not available.
Flu Activity Not available.
METAR KARB 041253Z 18004KT 10SM OVC012 19/19 A3001 RMK AO2 SLP158 T01940189

10-Day Weather Forecast

×

Almanac

Astronomy

Sep. 04, 2015 Rise Set
Actual Time
Civil Twilight
Nautical Twilight
Astronomical Twilight
Moon
Length of Visible Light
Length of Day
Tomorrow will be .
, % of the Moon is Illuminated

Today's Extremes

State Highs State Lows

Community

WunderPhotos

Upload Photos

1,852,179 photos uploaded!

WunderBlogs® & News

Nearby

Air Quality

  Air Quality AQ Index Pollutant
Not available.

Snow Depth

Station Depth Elevation

Earthquake Activity

City Distance Mag. Time & Date
Minimum magnitude displayed is 2.5.

Coastal Water Temperatures

Place Temperature

Stations

Nearby Weather Stations

Station Location Temp. Windchill Dew Point Humidity Wind Precip. Elev Updated Type